Zim Luanda — 9HA2029 — position and weather

sailwx.info

Track history (hours):
 
Tides and Currents Weather Stations Pressure Air Temp Water Temp Dewpoint Dewpoint Depression Visibility Wind Speed Wind Dir Waves Ship Positions

Zim Luanda

Last reported at 2017-Nov-17 07:21 UTC. Time now 2017-Nov-17 21:21 UTC.
Position N 36°47' W 010°27'.

Length 260 m; draft 11.7 m.

Type: Ship (hazmat cat A). MMSI: 249830000.

Date/timePositionNaut miles runAvg speedWind from/ knotsBaromVisibWave heightAir tempDewpointWater temp
2017-Nov-17 07:21N 36°47' W 010°27'720.4
2017-Nov-17 07:00N 36°43' W 010°20'3520.2
2017-Nov-17 05:17N 36°21' W 009°46'20520.7
2017-Nov-16 19:24N 35°58' W 005°34'716.8
2017-Nov-16 19:00N 36°01' W 005°27'612.0
2017-Nov-16 18:30N 36°06' W 005°24'2 0.5
2017-Nov-16 15:20N 36°08' W 005°25'0 0.0
2017-Nov-16 14:59N 36°08' W 005°25'0 0.0
2017-Nov-16 14:23N 36°08' W 005°25'0 0.0
2017-Nov-16 13:59N 36°08' W 005°25'0 0.0
2017-Nov-16 11:59N 36°08' W 005°25'1 0.0
2017-Nov-14 17:57N 36°08' W 005°24'1 0.5
2017-Nov-14 16:15N 36°08' W 005°25'0 0.0
2017-Nov-14 16:00N 36°08' W 005°25'0 0.0
2017-Nov-14 15:30N 36°08' W 005°25'0 0.0
2017-Nov-14 14:57N 36°08' W 005°25'0 0.0
2017-Nov-14 14:30N 36°08' W 005°25'0 0.0
2017-Nov-14 14:00N 36°08' W 005°25'0 0.0
2017-Nov-14 13:18N 36°08' W 005°25'0 0.0
2017-Nov-14 12:51N 36°08' W 005°25'0 0.0
2017-Nov-14 11:33N 36°08' W 005°25'0 0.1
2017-Nov-14 11:21N 36°08' W 005°25'0 0.0
2017-Nov-14 10:00N 36°08' W 005°25'0 0.0
2017-Nov-14 09:27N 36°08' W 005°25'0 0.0
2017-Nov-14 08:58N 36°08' W 005°25'2 0.4
2017-Nov-14 04:39N 36°09' W 005°24'0 0.0
2017-Nov-14 04:30N 36°09' W 005°24'0 0.0
2017-Nov-14 03:57N 36°09' W 005°24'0 0.1
2017-Nov-14 03:30N 36°09' W 005°24'0 0.0
2017-Nov-14 03:00N 36°09' W 005°24'0 0.1
2017-Nov-14 02:27N 36°09' W 005°24'0 0.2
2017-Nov-14 02:00N 36°09' W 005°24'1 1.2
2017-Nov-14 01:31N 36°09' W 005°24'2 5.0
2017-Nov-14 01:01N 36°06' W 005°24'4 7.9
2017-Nov-14 00:31N 36°03' W 005°21'0 0.8
2017-Nov-14 00:01N 36°03' W 005°21'0 0.1
2017-Nov-13 23:31N 36°03' W 005°21'1 2.7
2017-Nov-13 23:01N 36°03' W 005°19'1 1.4
2017-Nov-13 22:31N 36°03' W 005°20'0 0.7
2017-Nov-13 22:01N 36°04' W 005°20'22710.5
2017-Nov-13 00:21N 37°20' W 000°53'512.5
2017-Nov-12 23:59N 37°24' W 000°49'612.3
2017-Nov-12 23:30N 37°27' W 000°44'612.1
2017-Nov-12 23:00N 37°31' W 000°38'611.9
2017-Nov-12 22:31N 37°35' W 000°32'1111.8
2017-Nov-12 21:35N 37°45' W 000°25'111.6
2017-Nov-12 21:31N 37°45' W 000°24'611.5
2017-Nov-12 21:01N 37°50' W 000°20'611.5
2017-Nov-12 20:29N 37°55' W 000°16'511.6
2017-Nov-12 20:01N 37°60' W 000°12'611.6
2017-Nov-12 19:31N 38°05' W 000°09'611.6
2017-Nov-12 19:01N 38°10' W 000°04'611.6
2017-Nov-12 18:31N 38°14' W 000°00'611.5
2017-Nov-12 17:58N 38°20' E 000°04'186 4.9
2017-Nov-11 03:44N 41°03' E 001°58'412.8
2017-Nov-11 03:23N 41°07' E 002°01'512.8
2017-Nov-11 03:00N 41°11' E 002°05'  
2017-Nov-08 13:06N 36°34' E 013°57'314.0
2017-Nov-08 12:54N 36°34' E 014°01'513.6
2017-Nov-08 12:30N 36°32' E 014°07'713.7
2017-Nov-08 12:00N 36°31' E 014°16'713.6
2017-Nov-08 11:30N 36°30' E 014°24'713.3
2017-Nov-08 11:00N 36°29' E 014°32'612.5
2017-Nov-08 10:30N 36°29' E 014°40'  
Track history (hours):
 
Tides and Currents Weather Stations Pressure Air Temp Water Temp Dewpoint Dewpoint Depression Visibility Wind Speed Wind Dir Waves Ship Positions

Zim Luanda

Last reported at 2017-Nov-17 07:21 UTC. Time now 2017-Nov-17 21:21 UTC.
Position N 36°47' W 010°27'.

Length 260 m; draft 11.7 m.

Type: Ship (hazmat cat A). MMSI: 249830000.

Date/timePositionNaut miles runAvg speedWind from/ knotsBaromVisibWave heightAir tempDewpointWater temp
2017-Nov-17 07:21N 36°47' W 010°27'720.4
2017-Nov-17 07:00N 36°43' W 010°20'3520.2
2017-Nov-17 05:17N 36°21' W 009°46'20520.7
2017-Nov-16 19:24N 35°58' W 005°34'716.8
2017-Nov-16 19:00N 36°01' W 005°27'612.0
2017-Nov-16 18:30N 36°06' W 005°24'2 0.5
2017-Nov-16 15:20N 36°08' W 005°25'0 0.0
2017-Nov-16 14:59N 36°08' W 005°25'0 0.0
2017-Nov-16 14:23N 36°08' W 005°25'0 0.0
2017-Nov-16 13:59N 36°08' W 005°25'0 0.0
2017-Nov-16 11:59N 36°08' W 005°25'1 0.0
2017-Nov-14 17:57N 36°08' W 005°24'1 0.5
2017-Nov-14 16:15N 36°08' W 005°25'0 0.0
2017-Nov-14 16:00N 36°08' W 005°25'0 0.0
2017-Nov-14 15:30N 36°08' W 005°25'0 0.0
2017-Nov-14 14:57N 36°08' W 005°25'0 0.0
2017-Nov-14 14:30N 36°08' W 005°25'0 0.0
2017-Nov-14 14:00N 36°08' W 005°25'0 0.0
2017-Nov-14 13:18N 36°08' W 005°25'0 0.0
2017-Nov-14 12:51N 36°08' W 005°25'0 0.0
2017-Nov-14 11:33N 36°08' W 005°25'0 0.1
2017-Nov-14 11:21N 36°08' W 005°25'0 0.0
2017-Nov-14 10:00N 36°08' W 005°25'0 0.0
2017-Nov-14 09:27N 36°08' W 005°25'0 0.0
2017-Nov-14 08:58N 36°08' W 005°25'2 0.4
2017-Nov-14 04:39N 36°09' W 005°24'0 0.0
2017-Nov-14 04:30N 36°09' W 005°24'0 0.0
2017-Nov-14 03:57N 36°09' W 005°24'0 0.1
2017-Nov-14 03:30N 36°09' W 005°24'0 0.0
2017-Nov-14 03:00N 36°09' W 005°24'0 0.1
2017-Nov-14 02:27N 36°09' W 005°24'0 0.2
2017-Nov-14 02:00N 36°09' W 005°24'1 1.2
2017-Nov-14 01:31N 36°09' W 005°24'2 5.0
2017-Nov-14 01:01N 36°06' W 005°24'4 7.9
2017-Nov-14 00:31N 36°03' W 005°21'0 0.8
2017-Nov-14 00:01N 36°03' W 005°21'0 0.1
2017-Nov-13 23:31N 36°03' W 005°21'1 2.7
2017-Nov-13 23:01N 36°03' W 005°19'1 1.4
2017-Nov-13 22:31N 36°03' W 005°20'0 0.7
2017-Nov-13 22:01N 36°04' W 005°20'22710.5
2017-Nov-13 00:21N 37°20' W 000°53'512.5
2017-Nov-12 23:59N 37°24' W 000°49'612.3
2017-Nov-12 23:30N 37°27' W 000°44'612.1
2017-Nov-12 23:00N 37°31' W 000°38'611.9
2017-Nov-12 22:31N 37°35' W 000°32'1111.8
2017-Nov-12 21:35N 37°45' W 000°25'111.6
2017-Nov-12 21:31N 37°45' W 000°24'611.5
2017-Nov-12 21:01N 37°50' W 000°20'611.5
2017-Nov-12 20:29N 37°55' W 000°16'511.6
2017-Nov-12 20:01N 37°60' W 000°12'611.6
2017-Nov-12 19:31N 38°05' W 000°09'611.6
2017-Nov-12 19:01N 38°10' W 000°04'611.6
2017-Nov-12 18:31N 38°14' W 000°00'611.5
2017-Nov-12 17:58N 38°20' E 000°04'186 4.9
2017-Nov-11 03:44N 41°03' E 001°58'412.8
2017-Nov-11 03:23N 41°07' E 002°01'512.8
2017-Nov-11 03:00N 41°11' E 002°05'  
2017-Nov-08 13:06N 36°34' E 013°57'314.0
2017-Nov-08 12:54N 36°34' E 014°01'513.6
2017-Nov-08 12:30N 36°32' E 014°07'713.7
2017-Nov-08 12:00N 36°31' E 014°16'713.6
2017-Nov-08 11:30N 36°30' E 014°24'713.3
2017-Nov-08 11:00N 36°29' E 014°32'612.5
2017-Nov-08 10:30N 36°29' E 014°40'  

Dump ship's entire track history